PST: 13:02 MST: 14:02 CST: 15:02 EST: 16:02 LDN: 21:02 UTC: 21:02
User Agent: CCBot/2.0 (https://commoncrawl.org/faq/)
IP Address: 54.224.133.198
Hostname: ec2-54-224-133-198.compute-1.amazonaws.com

METAR:
KBFI 272053Z 00000KT 6SM HZ CLR 06/02 A3039 RMK AO2 SLP289 T00560017 58014
KBFI 271953Z 00000KT 6SM HZ SCT004 04/01 A3041 RMK AO2 SLP297 T00390011
KBFI 271853Z 00000KT 2SM BR OVC004 02/01 A3043 RMK AO2 SLP303 T00220006
KBFI 271753Z 00000KT 2SM BR OVC004 02/01 A3043 RMK AO2 SLP303 T00170006 10017 20006 53008

TAF:
KBFI 271741Z 2718/2818 00000KT 2SM BR OVC004
FM 272000 13003KT 4SM BR BKN004
FM 272100 VRB03KT P6SM SCT010
FM 280200 10002KT P6SM SCT010
FM 280500 16002KT 4SM BR BKN004

KBFI 271336Z 2714/2812 00000KT 3SM BR OVC004
FM 272000 13003KT 4SM BR BKN004
FM 272100 VRB03KT P6SM SCT010
FM 280200 10002KT P6SM SCT010
FM 280500 16002KT 4SM BR BKN004

KBFI 271120Z 2712/2812 04003KT 3SM BR OVC004
FM 272000 13003KT 4SM BR BKN004
FM 272100 VRB03KT P6SM SCT010
FM 280200 10002KT P6SM SCT010
FM 280500 16002KT 4SM BR BKN004

KBFI 270834Z 2709/2806 06005KT 2SM BR OVC004
FM 271200 00000KT 1SM BR OVC002
FM 272000 VRB03KT 4SM BR BKN004
FM 272100 34003KT P6SM SCT010
FM 280500 00000KT 4SM BR BKN004

KBFI 270520Z 2706/2806 00000KT 3SM BR OVC004
FM 270900 00000KT 1SM BR OVC002
FM 272000 VRB03KT 4SM BR BKN004
FM 272100 VRB03KT P6SM SCT010
FM 280500 00000KT 4SM BR BKN004

KBFI 270343Z 2704/2724 00000KT 5SM BR OVC004
FM 270900 00000KT 1SM BR OVC003
FM 271900 03005KT 4SM BR BKN008
FM 272200 02005KT P6SM SCT010

KBFI 262327Z 2700/2724 33004KT 6SM BR SCT015
FM 270500 00000KT 6SM BR SCT005 SCT150
FM 271000 30002KT 2SM BR BKN005
FM 271900 03005KT 4SM BR BKN008
FM 272200 02005KT P6SM SCT010

KBFI 262105Z 2621/2718 03004KT 5SM BR OVC010
FM 262200 33004KT 6SM BR SCT015
FM 270500 00000KT 6SM BR SCT005 SCT150
FM 271000 30002KT 4SM BR BKN003

KBFI 261919Z 2619/2718 04002KT 5SM BR OVC007
FM 262100 33004KT 6SM BR SCT015
FM 270500 00000KT 6SM BR SCT005 SCT150
FM 271000 30002KT 4SM BR BKN003

KBFI 261733Z 2618/2718 04002KT 3SM BR OVC004
FM 262100 33004KT P6SM SKC
FM 270500 00000KT 6SM BR BKN250
FM 271000 30002KT 4SM BR BKN003